createdAt,value
2023-04-11T00:00:41.370Z,78.46
2023-04-11T00:01:41.405Z,79.32
2023-04-11T00:02:41.355Z,79.22
2023-04-11T00:04:02.301Z,78.56
2023-04-11T00:04:41.145Z,79.13
2023-04-11T00:05:40.961Z,79.32
2023-04-11T00:06:40.872Z,79.03
2023-04-11T00:07:40.806Z,79.60
2023-04-11T00:08:40.718Z,79.60
2023-04-11T00:10:01.616Z,79.51
2023-04-11T00:10:40.557Z,79.13
2023-04-11T00:11:40.492Z,78.65
2023-04-11T00:12:40.399Z,78.85
2023-04-11T00:13:40.305Z,78.94
2023-04-11T00:14:40.237Z,79.13
2023-04-11T00:16:01.142Z,78.46
2023-04-11T00:16:40.117Z,78.08
2023-04-11T00:17:40.013Z,78.46
2023-04-11T00:18:39.905Z,77.89
2023-04-11T00:19:39.835Z,78.37
2023-04-11T00:20:39.751Z,77.80
2023-04-11T00:22:00.658Z,77.61
2023-04-11T00:22:39.626Z,78.46
2023-04-11T00:23:39.495Z,78.37
2023-04-11T00:24:39.425Z,78.65
2023-04-11T00:25:39.349Z,79.13
2023-04-11T00:26:39.256Z,79.32
2023-04-11T00:28:00.153Z,78.75
2023-04-11T00:28:39.108Z,78.85
2023-04-11T00:29:39.022Z,78.75
2023-04-11T00:30:38.942Z,78.85
2023-04-11T00:31:38.869Z,78.65
2023-04-11T00:32:38.782Z,78.56
2023-04-11T00:33:59.693Z,78.65
2023-04-11T00:34:38.618Z,78.56
2023-04-11T00:35:38.537Z,78.75
2023-04-11T00:36:38.536Z,78.56
2023-04-11T00:37:38.360Z,79.03
2023-04-11T00:38:38.287Z,78.65
2023-04-11T00:39:59.188Z,78.56
2023-04-11T00:40:38.131Z,77.89
2023-04-11T00:41:38.038Z,77.32
2023-04-11T00:42:37.979Z,78.08
2023-04-11T00:43:37.887Z,78.17
2023-04-11T00:44:37.811Z,77.89
2023-04-11T00:45:58.710Z,77.89
2023-04-11T00:46:37.678Z,77.98
2023-04-11T00:47:37.606Z,77.61
2023-04-11T00:48:37.488Z,77.13
2023-04-11T00:49:37.426Z,77.42
2023-04-11T00:50:37.314Z,77.70
2023-04-11T00:51:58.205Z,77.70
2023-04-11T00:52:37.166Z,77.51
2023-04-11T00:53:37.089Z,78.46
2023-04-11T00:54:36.998Z,77.98
2023-04-11T00:55:36.902Z,78.17
2023-04-11T00:56:36.836Z,78.08
2023-04-11T00:57:57.729Z,77.42
2023-04-11T00:58:36.670Z,77.42
2023-04-11T00:59:36.579Z,77.70
2023-04-11T01:00:36.499Z,77.03
2023-04-11T01:01:36.573Z,76.94
2023-04-11T01:02:36.469Z,76.98
2023-04-11T01:03:57.471Z,77.55
2023-04-11T01:04:36.182Z,77.32
2023-04-11T01:05:36.107Z,77.45
2023-04-11T01:06:36.028Z,77.61
2023-04-11T01:07:35.944Z,77.42
2023-04-11T01:08:35.900Z,77.32
2023-04-11T01:09:56.754Z,78.17
2023-04-11T01:10:35.721Z,78.65
2023-04-11T01:11:35.611Z,78.65
2023-04-11T01:12:35.563Z,78.78
2023-04-11T01:13:35.455Z,78.65
2023-04-11T01:14:35.383Z,78.37
2023-04-11T01:15:56.281Z,78.56
2023-04-11T01:16:35.276Z,78.37
2023-04-11T01:17:35.193Z,78.85
2023-04-11T01:18:35.049Z,78.08
2023-04-11T01:19:34.987Z,78.75
2023-04-11T01:20:34.888Z,78.75
2023-04-11T01:21:55.792Z,78.65
2023-04-11T01:22:34.729Z,78.75
2023-04-11T01:23:34.641Z,79.13
2023-04-11T01:24:34.582Z,80.08
2023-04-11T01:25:34.481Z,80.84
2023-04-11T01:26:34.408Z,81.03
2023-04-11T01:27:55.311Z,81.03
2023-04-11T01:28:34.265Z,81.70
2023-04-11T01:29:34.157Z,82.37
2023-04-11T01:30:34.102Z,82.46
2023-04-11T01:31:34.007Z,82.65
2023-04-11T01:32:33.943Z,82.46
2023-04-11T01:33:54.830Z,83.13
2023-04-11T01:34:33.778Z,82.75
2023-04-11T01:35:33.704Z,83.70
2023-04-11T01:36:33.611Z,84.36
2023-04-11T01:37:33.519Z,84.56
2023-04-11T01:38:33.443Z,85.60
2023-04-11T01:39:54.330Z,85.85
2023-04-11T01:40:33.279Z,85.75
2023-04-11T01:41:33.204Z,85.70
2023-04-11T01:42:33.108Z,85.89
2023-04-11T01:43:33.032Z,87.13
2023-04-11T01:44:32.954Z,87.94
2023-04-11T01:45:53.846Z,86.90
2023-04-11T01:46:32.783Z,87.27
2023-04-11T01:47:32.788Z,87.37
2023-04-11T01:48:32.672Z,87.65
2023-04-11T01:49:32.548Z,87.94
2023-04-11T01:50:32.457Z,87.18
2023-04-11T01:51:53.369Z,88.32
2023-04-11T01:52:32.320Z,88.42
2023-04-11T01:53:32.216Z,88.60
2023-04-11T01:54:32.143Z,89.47
2023-04-11T01:55:32.056Z,90.32
2023-04-11T01:56:31.973Z,90.61
2023-04-11T01:57:52.871Z,91.56
2023-04-11T01:58:31.818Z,91.27
2023-04-11T01:59:31.793Z,91.56
2023-04-11T02:00:31.665Z,90.22
2023-04-11T02:01:31.648Z,91.08
2023-04-11T02:02:31.597Z,91.27
2023-04-11T02:03:52.482Z,91.75
2023-04-11T02:04:31.359Z,92.60
2023-04-11T02:05:31.242Z,94.13
2023-04-11T02:06:31.171Z,95.84
2023-04-11T02:07:31.082Z,96.22
2023-04-11T02:08:31.007Z,96.89
2023-04-11T02:09:51.910Z,96.98
2023-04-11T02:10:30.852Z,96.60
2023-04-11T02:11:30.772Z,97.84
2023-04-11T02:12:30.701Z,98.13
2023-04-11T02:13:30.600Z,98.50
2023-04-11T02:14:30.529Z,98.60
2023-04-11T02:15:51.462Z,98.50
2023-04-11T02:16:30.364Z,97.65
2023-04-11T02:17:30.322Z,97.65
2023-04-11T02:18:30.204Z,99.27
2023-04-11T02:19:30.113Z,99.99
2023-04-11T02:20:30.030Z,99.74
2023-04-11T02:21:50.948Z,99.27
2023-04-11T02:22:29.872Z,99.93
2023-04-11T02:23:29.795Z,99.99
2023-04-11T02:24:29.717Z,99.99
2023-04-11T02:25:29.637Z,99.99
2023-04-11T02:26:29.543Z,99.99
2023-04-11T02:27:50.444Z,99.99
2023-04-11T02:28:29.400Z,99.99
2023-04-11T02:29:29.306Z,99.99
2023-04-11T02:30:29.238Z,99.99
2023-04-11T02:31:29.285Z,99.99
2023-04-11T02:32:29.118Z,99.99
2023-04-11T02:33:49.961Z,99.99
2023-04-11T02:34:28.905Z,99.99
2023-04-11T02:35:28.820Z,99.99
2023-04-11T02:36:28.759Z,99.99
2023-04-11T02:37:28.656Z,99.99
2023-04-11T02:38:28.586Z,99.99
2023-04-11T02:39:49.487Z,99.99
2023-04-11T02:40:28.408Z,99.99
2023-04-11T02:41:28.324Z,99.99
2023-04-11T02:42:28.257Z,99.99
2023-04-11T02:43:28.174Z,99.99
2023-04-11T02:44:28.096Z,99.99
2023-04-11T02:45:49.831Z,99.99
2023-04-11T02:46:27.990Z,99.99
2023-04-11T02:47:27.918Z,99.99
2023-04-11T02:48:27.786Z,99.99
2023-04-11T02:49:27.699Z,99.99
2023-04-11T02:50:27.617Z,99.99
2023-04-11T02:51:48.525Z,99.99
2023-04-11T02:52:27.449Z,99.99
2023-04-11T02:53:27.349Z,99.99
2023-04-11T02:54:27.284Z,99.99
2023-04-11T02:55:27.184Z,99.99
2023-04-11T02:56:27.124Z,99.99
2023-04-11T02:57:48.024Z,99.99
2023-04-11T02:58:26.961Z,99.99
2023-04-11T02:59:26.869Z,99.99
2023-04-11T03:00:26.798Z,99.99
2023-04-11T03:01:26.751Z,99.99
2023-04-11T03:02:26.802Z,99.99
2023-04-11T03:03:47.626Z,99.99
2023-04-11T03:04:26.531Z,99.99
2023-04-11T03:05:26.409Z,99.99
2023-04-11T03:06:26.299Z,99.99
2023-04-11T03:07:26.216Z,99.99
2023-04-11T03:08:26.142Z,99.99
2023-04-11T03:09:47.042Z,99.99
2023-04-11T03:10:25.992Z,99.99
2023-04-11T03:11:25.895Z,99.99
2023-04-11T03:12:25.821Z,99.99
2023-04-11T03:13:25.724Z,99.99
2023-04-11T03:14:25.653Z,99.99
2023-04-11T03:15:46.596Z,99.99
2023-04-11T03:16:25.527Z,99.99
2023-04-11T03:17:25.433Z,99.99
2023-04-11T03:18:25.324Z,99.99
2023-04-11T03:19:25.242Z,99.99
2023-04-11T03:20:25.165Z,99.99
2023-04-11T03:21:46.065Z,99.99
2023-04-11T03:22:25.008Z,99.99
2023-04-11T03:23:24.923Z,99.99
2023-04-11T03:24:24.855Z,99.99
2023-04-11T03:25:24.755Z,99.99
2023-04-11T03:26:24.683Z,99.99
2023-04-11T03:27:45.579Z,99.99
2023-04-11T03:28:24.528Z,99.99
2023-04-11T03:29:24.427Z,99.99
2023-04-11T03:30:24.365Z,99.99
2023-04-11T03:31:24.345Z,99.99
2023-04-11T03:32:24.217Z,99.99
2023-04-11T03:33:45.093Z,99.99
2023-04-11T03:34:24.031Z,99.99
2023-04-11T03:35:23.950Z,99.99
2023-04-11T03:36:23.878Z,99.99
2023-04-11T03:37:23.777Z,99.99
2023-04-11T03:38:23.714Z,99.99
2023-04-11T03:39:44.608Z,99.99
2023-04-11T03:40:23.541Z,99.99
2023-04-11T03:41:23.450Z,99.99
2023-04-11T03:42:23.383Z,99.99
2023-04-11T03:43:23.297Z,99.99
2023-04-11T03:44:23.228Z,99.99
2023-04-11T03:45:44.136Z,99.99
2023-04-11T03:46:23.101Z,99.99
2023-04-11T03:47:22.974Z,99.99
2023-04-11T03:48:22.904Z,99.99
2023-04-11T03:49:22.811Z,99.99
2023-04-11T03:50:22.732Z,99.99
2023-04-11T03:51:43.639Z,99.99
2023-04-11T03:52:22.576Z,99.99
2023-04-11T03:53:22.479Z,99.99
2023-04-11T03:54:22.407Z,99.99
2023-04-11T03:55:22.319Z,99.99
2023-04-11T03:56:22.259Z,99.99
2023-04-11T03:57:43.138Z,99.99
2023-04-11T03:58:22.073Z,99.99
2023-04-11T03:59:22.000Z,99.99
2023-04-11T04:00:21.909Z,99.99
2023-04-11T04:01:21.838Z,99.99
2023-04-11T04:02:21.950Z,99.99
2023-04-11T04:03:42.954Z,99.99
2023-04-11T04:04:21.629Z,99.99
2023-04-11T04:05:21.516Z,99.99
2023-04-11T04:06:21.427Z,99.99
2023-04-11T04:07:21.339Z,99.99
2023-04-11T04:08:21.266Z,99.99
2023-04-11T04:09:42.152Z,99.99
2023-04-11T04:10:21.098Z,99.99
2023-04-11T04:11:21.020Z,99.99
2023-04-11T04:12:20.940Z,99.99
2023-04-11T04:13:20.853Z,99.99
2023-04-11T04:14:20.781Z,99.99
2023-04-11T04:15:41.669Z,99.99
2023-04-11T04:16:20.657Z,99.99
2023-04-11T04:17:20.515Z,99.99
2023-04-11T04:18:20.456Z,99.99
2023-04-11T04:19:20.349Z,99.99
2023-04-11T04:20:20.304Z,99.99
2023-04-11T04:21:41.173Z,99.99
2023-04-11T04:22:20.122Z,99.99
2023-04-11T04:23:20.082Z,99.99
2023-04-11T04:24:19.950Z,99.99
2023-04-11T04:25:19.897Z,99.99
2023-04-11T04:26:19.789Z,99.99
2023-04-11T04:27:40.693Z,99.99
2023-04-11T04:28:19.627Z,99.99
2023-04-11T04:29:19.555Z,99.99
2023-04-11T04:30:19.466Z,99.99
2023-04-11T04:31:19.485Z,99.99
2023-04-11T04:32:19.312Z,99.99
2023-04-11T04:33:40.207Z,99.99
2023-04-11T04:34:19.146Z,99.99
2023-04-11T04:35:19.056Z,99.99
2023-04-11T04:36:18.992Z,99.99
2023-04-11T04:37:18.900Z,99.99
2023-04-11T04:38:18.812Z,99.99
2023-04-11T04:39:39.722Z,99.99
2023-04-11T04:40:18.646Z,99.99
2023-04-11T04:41:18.572Z,99.99
2023-04-11T04:42:18.483Z,99.99
2023-04-11T04:43:18.559Z,99.99
2023-04-11T04:44:18.343Z,99.99
2023-04-11T04:45:39.242Z,99.99
2023-04-11T04:46:18.221Z,99.99
2023-04-11T04:47:18.082Z,99.99
2023-04-11T04:48:18.029Z,99.99
2023-04-11T04:49:17.915Z,99.99
2023-04-11T04:50:17.841Z,99.99
2023-04-11T04:51:38.756Z,99.99
2023-04-11T04:52:17.666Z,99.99
2023-04-11T04:53:17.604Z,99.99
2023-04-11T04:54:17.515Z,99.99
2023-04-11T04:55:17.440Z,99.99
2023-04-11T04:56:17.351Z,99.99
2023-04-11T04:57:38.245Z,99.99
2023-04-11T04:58:17.208Z,99.99
2023-04-11T04:59:17.116Z,99.99
2023-04-11T05:00:17.018Z,99.99
2023-04-11T05:01:17.068Z,99.99
2023-04-11T05:02:16.989Z,99.99
2023-04-11T05:03:37.844Z,99.99
2023-04-11T05:04:16.805Z,99.99
2023-04-11T05:05:16.632Z,99.99
2023-04-11T05:06:17.422Z,99.99
2023-04-11T05:07:16.470Z,99.99
2023-04-11T05:08:16.371Z,99.99
2023-04-11T05:09:37.271Z,99.99
2023-04-11T05:10:16.212Z,99.99
2023-04-11T05:11:16.128Z,99.99
2023-04-11T05:12:16.076Z,99.99
2023-04-11T05:13:15.987Z,99.99
2023-04-11T05:14:15.879Z,99.99
2023-04-11T05:15:36.802Z,99.99
2023-04-11T05:16:15.759Z,99.99
2023-04-11T05:17:16.179Z,99.99
2023-04-11T05:18:15.589Z,99.99
2023-04-11T05:19:15.490Z,99.99
2023-04-11T05:20:15.414Z,99.99
2023-04-11T05:21:36.292Z,99.99
2023-04-11T05:22:15.239Z,99.99
2023-04-11T05:23:15.164Z,99.99
2023-04-11T05:24:15.066Z,99.99
2023-04-11T05:25:15.011Z,99.99
2023-04-11T05:26:14.917Z,99.99
2023-04-11T05:27:35.804Z,99.99
2023-04-11T05:28:14.754Z,99.99
2023-04-11T05:29:14.670Z,99.99
2023-04-11T05:30:14.599Z,99.99
2023-04-11T05:31:14.558Z,99.99
2023-04-11T05:32:14.424Z,99.99
2023-04-11T05:33:35.336Z,99.99
2023-04-11T05:34:14.270Z,99.99
2023-04-11T05:35:14.220Z,99.99
2023-04-11T05:36:14.399Z,99.99
2023-04-11T05:37:14.031Z,99.99
2023-04-11T05:38:13.941Z,99.99
2023-04-11T05:39:34.847Z,99.99
2023-04-11T05:40:13.784Z,99.99
2023-04-11T05:41:13.687Z,99.99
2023-04-11T05:42:13.613Z,99.99
2023-04-11T05:43:13.532Z,99.99
2023-04-11T05:44:13.461Z,99.99
2023-04-11T05:45:34.357Z,99.99
2023-04-11T05:46:13.319Z,99.99
2023-04-11T05:47:13.218Z,99.99
2023-04-11T05:48:14.814Z,99.99
2023-04-11T05:49:13.039Z,99.99
2023-04-11T05:50:12.958Z,99.99
2023-04-11T05:51:33.872Z,99.99
2023-04-11T05:52:12.799Z,99.99
2023-04-11T05:53:12.738Z,99.99
2023-04-11T05:54:12.630Z,99.99
2023-04-11T05:55:12.559Z,99.99
2023-04-11T05:56:12.476Z,99.99
2023-04-11T05:57:33.379Z,99.99
2023-04-11T05:58:12.310Z,99.99
2023-04-11T05:59:12.231Z,99.99
2023-04-11T06:00:12.154Z,99.99
2023-04-11T06:01:12.069Z,99.99
2023-04-11T06:02:12.054Z,99.99
2023-04-11T06:03:33.025Z,99.99
2023-04-11T06:04:12.000Z,99.99
2023-04-11T06:05:11.976Z,99.99
2023-04-11T06:06:11.688Z,99.99
2023-04-11T06:07:11.700Z,99.99
2023-04-11T06:08:11.485Z,99.99
2023-04-11T06:09:33.905Z,99.99
2023-04-11T06:10:11.335Z,99.99
2023-04-11T06:11:11.294Z,99.99
2023-04-11T06:12:11.370Z,99.99
2023-04-11T06:13:11.093Z,99.99
2023-04-11T06:14:11.000Z,99.99
2023-04-11T06:15:31.934Z,99.99
2023-04-11T06:16:10.896Z,99.99
2023-04-11T06:17:10.752Z,99.99
2023-04-11T06:18:10.810Z,99.99
2023-04-11T06:19:10.598Z,99.99
2023-04-11T06:20:10.515Z,99.99
2023-04-11T06:21:31.412Z,99.99
2023-04-11T06:22:10.346Z,99.99
2023-04-11T06:23:10.275Z,99.99
2023-04-11T06:24:10.184Z,99.99
2023-04-11T06:25:10.111Z,99.99
2023-04-11T06:26:11.461Z,99.99
2023-04-11T06:27:30.918Z,99.99
2023-04-11T06:28:09.855Z,99.99
2023-04-11T06:29:09.780Z,99.99
2023-04-11T06:30:09.686Z,99.99
2023-04-11T06:31:09.673Z,99.99
2023-04-11T06:32:09.530Z,99.99
2023-04-11T06:33:30.424Z,99.99
2023-04-11T06:34:09.372Z,99.99
2023-04-11T06:35:09.295Z,99.99
2023-04-11T06:36:09.235Z,99.99
2023-04-11T06:37:09.122Z,99.99
2023-04-11T06:38:09.046Z,99.99
2023-04-11T06:39:29.944Z,99.99
2023-04-11T06:40:08.878Z,99.99
2023-04-11T06:41:08.798Z,99.99
2023-04-11T06:42:08.731Z,99.99
2023-04-11T06:43:08.731Z,99.99
2023-04-11T06:44:08.594Z,99.99
2023-04-11T06:45:29.462Z,99.99
2023-04-11T06:46:08.436Z,99.99
2023-04-11T06:47:08.300Z,99.99
2023-04-11T06:48:08.307Z,99.99
2023-04-11T06:49:08.142Z,99.99
2023-04-11T06:50:08.059Z,99.99
2023-04-11T06:51:28.959Z,99.99
2023-04-11T06:52:08.261Z,99.99
2023-04-11T06:53:07.826Z,99.99
2023-04-11T06:54:07.734Z,99.99
2023-04-11T06:55:07.721Z,99.99
2023-04-11T06:56:07.576Z,99.99
2023-04-11T06:57:28.471Z,99.99
2023-04-11T06:58:07.404Z,99.99
2023-04-11T06:59:07.328Z,99.99
2023-04-11T07:00:07.309Z,99.99
2023-04-11T07:01:07.154Z,99.99
2023-04-11T07:02:07.141Z,99.99
2023-04-11T07:03:28.031Z,99.99
2023-04-11T07:04:06.993Z,99.99
2023-04-11T07:05:06.837Z,99.99
2023-04-11T07:06:06.768Z,99.99
2023-04-11T07:07:06.669Z,99.99
2023-04-11T07:08:06.603Z,99.99
2023-04-11T07:09:27.494Z,99.99
2023-04-11T07:10:06.427Z,99.99
2023-04-11T07:11:06.359Z,99.99
2023-04-11T07:12:06.281Z,99.99
2023-04-11T07:13:06.182Z,99.99
2023-04-11T07:14:06.100Z,99.99
2023-04-11T07:15:27.011Z,99.99
2023-04-11T07:16:05.957Z,99.99
2023-04-11T07:17:05.869Z,99.99
2023-04-11T07:18:05.823Z,99.99
2023-04-11T07:19:05.689Z,99.99
2023-04-11T07:20:05.656Z,99.99
2023-04-11T07:21:26.509Z,99.99
2023-04-11T07:22:05.448Z,99.99
2023-04-11T07:23:05.357Z,99.99
2023-04-11T07:24:05.289Z,99.99
2023-04-11T07:25:05.204Z,99.99
2023-04-11T07:26:05.139Z,99.99
2023-04-11T07:27:26.064Z,99.99
2023-04-11T07:28:04.938Z,99.99
2023-04-11T07:29:05.284Z,99.99
2023-04-11T07:30:04.808Z,99.99
2023-04-11T07:31:04.738Z,99.99
2023-04-11T07:32:04.708Z,99.99
2023-04-11T07:33:25.521Z,99.99
2023-04-11T07:34:04.466Z,99.99
2023-04-11T07:35:04.383Z,99.99
2023-04-11T07:36:04.300Z,99.99
2023-04-11T07:37:04.264Z,99.99
2023-04-11T07:38:04.119Z,99.99
2023-04-11T07:39:25.021Z,99.99
2023-04-11T07:40:03.996Z,99.99
2023-04-11T07:41:03.888Z,99.99
2023-04-11T07:42:03.788Z,99.99
2023-04-11T07:43:03.728Z,99.99
2023-04-11T07:44:03.638Z,99.99
2023-04-11T07:45:24.621Z,99.99
2023-04-11T07:46:03.542Z,99.99
2023-04-11T07:47:03.400Z,99.99
2023-04-11T07:48:03.359Z,99.99
2023-04-11T07:49:03.230Z,99.99
2023-04-11T07:50:03.175Z,99.99
2023-04-11T07:51:24.056Z,99.99
2023-04-11T07:52:02.978Z,99.99
2023-04-11T07:53:02.914Z,99.99
2023-04-11T07:54:02.831Z,99.99
2023-04-11T07:55:02.761Z,99.99
2023-04-11T07:56:02.667Z,99.99
2023-04-11T07:57:23.562Z,99.99
2023-04-11T07:58:02.499Z,99.99
2023-04-11T07:59:02.405Z,99.99
2023-04-11T08:00:02.344Z,99.99
2023-04-11T08:01:02.241Z,99.99
2023-04-11T08:02:02.258Z,99.99
2023-04-11T08:03:23.589Z,99.99
2023-04-11T08:04:02.310Z,99.99
2023-04-11T08:05:02.190Z,99.99
2023-04-11T08:06:01.842Z,99.99
2023-04-11T08:07:01.757Z,99.99
2023-04-11T08:08:01.713Z,99.99
2023-04-11T08:09:22.572Z,99.99
2023-04-11T08:10:01.509Z,99.99
2023-04-11T08:11:01.487Z,99.99
2023-04-11T08:12:01.352Z,99.99
2023-04-11T08:13:01.262Z,99.99
2023-04-11T08:14:01.177Z,99.99
2023-04-11T08:15:22.098Z,99.99
2023-04-11T08:16:01.025Z,99.99
2023-04-11T08:17:01.030Z,99.99
2023-04-11T08:18:00.879Z,99.99
2023-04-11T08:19:00.797Z,99.51
2023-04-11T08:20:02.330Z,99.60
2023-04-11T08:21:21.601Z,99.13
2023-04-11T08:22:00.547Z,98.84
2023-04-11T08:23:00.468Z,99.60
2023-04-11T08:24:00.383Z,99.69
2023-04-11T08:25:00.312Z,98.74
2023-04-11T08:26:00.211Z,98.74
2023-04-11T08:27:21.118Z,98.55
2023-04-11T08:28:00.054Z,98.18
2023-04-11T08:28:59.965Z,98.55
2023-04-11T08:29:59.886Z,98.55
2023-04-11T08:30:59.838Z,97.46
2023-04-11T08:31:59.735Z,97.70
2023-04-11T08:33:20.645Z,97.89
2023-04-11T08:34:01.422Z,98.65
2023-04-11T08:34:59.477Z,98.36
2023-04-11T08:35:59.434Z,97.99
2023-04-11T08:36:59.330Z,97.51
2023-04-11T08:37:59.245Z,97.60
2023-04-11T08:39:20.148Z,98.36
2023-04-11T08:39:59.310Z,97.60
2023-04-11T08:40:58.997Z,96.75
2023-04-11T08:41:58.928Z,96.55
2023-04-11T08:42:58.872Z,96.41
2023-04-11T08:43:58.935Z,94.46
2023-04-11T08:45:19.657Z,93.17
2023-04-11T08:45:58.622Z,94.60
2023-04-11T08:46:58.556Z,95.46
2023-04-11T08:47:58.493Z,95.46
2023-04-11T08:48:58.332Z,95.36
2023-04-11T08:49:58.285Z,95.75
2023-04-11T08:51:19.162Z,95.08
2023-04-11T08:51:58.115Z,94.89
2023-04-11T08:52:58.032Z,94.51
2023-04-11T08:53:58.309Z,94.89
2023-04-11T08:54:57.863Z,94.13
2023-04-11T08:55:57.786Z,94.13
2023-04-11T08:57:18.681Z,92.98
2023-04-11T08:57:57.614Z,92.69
2023-04-11T08:58:57.562Z,92.03
2023-04-11T08:59:57.478Z,90.98
2023-04-11T09:00:57.377Z,91.65
2023-04-11T09:01:57.358Z,90.98
2023-04-11T09:03:18.368Z,91.08
2023-04-11T09:03:57.321Z,92.84
2023-04-11T09:04:57.084Z,93.88
2023-04-11T09:05:56.999Z,93.41
2023-04-11T09:06:58.446Z,90.64
2023-04-11T09:07:56.814Z,89.64
2023-04-11T09:09:17.697Z,90.12
2023-04-11T09:09:56.652Z,89.36
2023-04-11T09:10:56.571Z,88.21
2023-04-11T09:11:56.493Z,87.45
2023-04-11T09:12:56.407Z,87.26
2023-04-11T09:13:56.506Z,87.45
2023-04-11T09:15:17.233Z,87.16
2023-04-11T09:15:56.170Z,87.07
2023-04-11T09:16:56.065Z,87.16
2023-04-11T09:17:57.561Z,87.16
2023-04-11T09:18:56.072Z,87.64
2023-04-11T09:19:55.866Z,87.45
2023-04-11T09:21:16.738Z,87.64
2023-04-11T09:21:55.676Z,88.31
2023-04-11T09:22:55.604Z,88.88
2023-04-11T09:23:55.687Z,88.88
2023-04-11T09:24:55.437Z,89.54
2023-04-11T09:25:55.357Z,89.54
2023-04-11T09:27:16.253Z,88.59
2023-04-11T09:27:55.205Z,89.83
2023-04-11T09:28:55.162Z,89.54
2023-04-11T09:29:55.031Z,89.54
2023-04-11T09:30:54.975Z,88.50
2023-04-11T09:31:54.872Z,87.74
2023-04-11T09:33:15.773Z,87.64
2023-04-11T09:33:55.008Z,88.12
2023-04-11T09:34:54.635Z,88.69
2023-04-11T09:35:54.601Z,88.12
2023-04-11T09:36:54.474Z,87.54
2023-04-11T09:37:54.454Z,87.93
2023-04-11T09:39:15.295Z,87.54
2023-04-11T09:39:54.248Z,87.54
2023-04-11T09:40:54.144Z,87.45
2023-04-11T09:41:54.075Z,88.50
2023-04-11T09:42:53.981Z,87.64
2023-04-11T09:43:53.995Z,87.16
2023-04-11T09:45:14.811Z,86.78
2023-04-11T09:45:54.740Z,86.78
2023-04-11T09:46:53.766Z,87.21
2023-04-11T09:47:53.674Z,88.40
2023-04-11T09:48:53.513Z,89.64
2023-04-11T09:49:53.433Z,90.55
2023-04-11T09:51:53.267Z,88.17
2023-04-11T09:52:53.210Z,89.12
2023-04-11T09:53:40.337Z,89.22
2023-04-11T09:53:53.161Z,90.08
2023-04-11T09:54:53.031Z,89.69
2023-04-11T09:55:52.946Z,90.03
2023-04-11T09:57:13.859Z,90.12
2023-04-11T09:57:52.803Z,90.70
2023-04-11T09:58:52.836Z,92.03
2023-04-11T09:59:52.629Z,92.65
2023-04-11T10:00:52.532Z,93.60
2023-04-11T10:01:52.537Z,93.98
2023-04-11T10:03:13.487Z,94.65
2023-04-11T10:03:52.371Z,94.79
2023-04-11T10:04:52.270Z,94.60
2023-04-11T10:05:52.154Z,95.75
2023-04-11T10:06:52.059Z,95.84
2023-04-11T10:07:51.986Z,95.65
2023-04-11T10:09:12.889Z,96.65
2023-04-11T10:09:51.821Z,96.94
2023-04-11T10:10:51.739Z,94.56
2023-04-11T10:11:51.665Z,93.88
2023-04-11T10:12:51.577Z,93.55
2023-04-11T10:13:51.508Z,93.36
2023-04-11T10:15:12.392Z,94.03
2023-04-11T10:15:51.352Z,93.60
2023-04-11T10:16:51.258Z,91.60
2023-04-11T10:17:51.295Z,91.02
2023-04-11T10:18:51.088Z,90.83
2023-04-11T10:19:51.042Z,92.36
2023-04-11T10:21:11.925Z,92.36
2023-04-11T10:21:50.859Z,90.11
2023-04-11T10:22:50.777Z,90.02
2023-04-11T10:23:50.702Z,90.78
2023-04-11T10:24:50.613Z,90.64
2023-04-11T10:25:50.565Z,89.30
2023-04-11T10:27:11.448Z,87.58
2023-04-11T10:27:50.471Z,87.58
2023-04-11T10:28:50.298Z,89.49
2023-04-11T10:29:51.671Z,88.44
2023-04-11T10:30:50.142Z,86.91
2023-04-11T10:31:50.106Z,84.43
2023-04-11T10:33:10.967Z,85.19
2023-04-11T10:33:49.903Z,85.58
2023-04-11T10:34:49.810Z,84.58
2023-04-11T10:35:49.793Z,84.10
2023-04-11T10:36:49.656Z,83.24
2023-04-11T10:37:49.585Z,83.00
2023-04-11T10:39:10.477Z,84.72
2023-04-11T10:39:49.439Z,83.00
2023-04-11T10:40:49.350Z,83.57
2023-04-11T10:41:49.280Z,81.27
2023-04-11T10:42:49.217Z,80.55
2023-04-11T10:43:49.113Z,80.65
2023-04-11T10:45:10.007Z,77.74
2023-04-11T10:45:48.949Z,77.87
2023-04-11T10:46:48.977Z,77.21
2023-04-11T10:47:48.825Z,78.45
2023-04-11T10:48:48.711Z,76.06
2023-04-11T10:49:48.630Z,76.45
2023-04-11T10:51:09.532Z,74.05
2023-04-11T10:51:48.481Z,75.62
2023-04-11T10:52:48.396Z,75.52
2023-04-11T10:53:48.312Z,73.33
2023-04-11T10:54:48.241Z,71.89
2023-04-11T10:55:48.165Z,69.89
2023-04-11T10:57:09.061Z,67.78
2023-04-11T10:57:47.996Z,67.59
2023-04-11T10:58:47.916Z,68.55
2023-04-11T10:59:47.852Z,69.02
2023-04-11T11:00:47.777Z,70.07
2023-04-11T11:01:52.326Z,68.61
2023-04-11T11:03:08.683Z,67.84
2023-04-11T11:03:47.669Z,70.81
2023-04-11T11:04:47.593Z,71.89
2023-04-11T11:05:47.372Z,70.27
2023-04-11T11:06:54.845Z,70.65
2023-04-11T11:07:47.218Z,70.94
2023-04-11T11:09:08.116Z,71.89
2023-04-11T11:09:47.057Z,71.51
2023-04-11T11:10:46.973Z,70.07
2023-04-11T11:11:46.898Z,69.37
2023-04-11T11:12:46.813Z,69.27
2023-04-11T11:13:46.750Z,68.90
2023-04-11T11:15:07.647Z,68.04
2023-04-11T11:15:46.581Z,69.31
2023-04-11T11:16:46.559Z,68.35
2023-04-11T11:17:46.446Z,68.16
2023-04-11T11:18:46.339Z,69.12
2023-04-11T11:19:46.420Z,69.25
2023-04-11T11:21:09.302Z,69.92
2023-04-11T11:21:46.114Z,67.91
2023-04-11T11:22:46.034Z,68.96
2023-04-11T11:23:45.956Z,68.20
2023-04-11T11:24:45.898Z,66.28
2023-04-11T11:25:45.803Z,66.13
2023-04-11T11:27:06.698Z,65.17
2023-04-11T11:27:45.640Z,64.88
2023-04-11T11:28:45.560Z,64.31
2023-04-11T11:29:45.474Z,66.32
2023-04-11T11:30:45.392Z,66.22
2023-04-11T11:31:45.431Z,64.69
2023-04-11T11:33:06.256Z,64.47
2023-04-11T11:33:45.159Z,65.65
2023-04-11T11:34:45.083Z,66.28
2023-04-11T11:35:45.014Z,65.90
2023-04-11T11:36:44.984Z,66.96
2023-04-11T11:37:44.850Z,68.29
2023-04-11T11:39:05.761Z,73.46
2023-04-11T11:39:44.709Z,73.46
2023-04-11T11:40:44.626Z,72.34
2023-04-11T11:41:44.547Z,71.97
2023-04-11T11:42:44.461Z,70.91
2023-04-11T11:43:44.379Z,71.20
2023-04-11T11:45:05.281Z,71.20
2023-04-11T11:45:44.259Z,72.34
2023-04-11T11:46:44.160Z,72.96
2023-04-11T11:47:44.110Z,70.66
2023-04-11T11:48:43.990Z,69.70
2023-04-11T11:49:43.917Z,71.42
2023-04-11T11:51:04.832Z,71.20
2023-04-11T11:51:43.760Z,69.86
2023-04-11T11:52:43.708Z,68.74
2023-04-11T11:53:43.600Z,68.52
2023-04-11T11:54:43.518Z,70.95
2023-04-11T11:55:43.452Z,69.13
2023-04-11T11:57:04.341Z,67.50
2023-04-11T11:57:43.292Z,68.74
2023-04-11T11:58:43.216Z,66.64
2023-04-11T11:59:43.145Z,67.21
2023-04-11T12:00:43.061Z,66.45
2023-04-11T12:01:43.026Z,65.97
2023-04-11T12:03:04.118Z,63.93
2023-04-11T12:03:42.890Z,63.83
2023-04-11T12:04:42.945Z,62.84
2023-04-11T12:05:42.681Z,62.65
2023-04-11T12:06:42.608Z,62.84
2023-04-11T12:07:42.547Z,64.18
2023-04-11T12:09:03.419Z,64.43
2023-04-11T12:09:42.365Z,65.58
2023-04-11T12:10:42.288Z,66.06
2023-04-11T12:11:42.200Z,66.25
2023-04-11T12:12:42.125Z,66.89
2023-04-11T12:13:42.051Z,67.27
2023-04-11T12:15:02.949Z,67.18
2023-04-11T12:15:41.912Z,67.18
2023-04-11T12:16:41.812Z,68.32
2023-04-11T12:17:41.786Z,68.23
2023-04-11T12:18:41.645Z,66.50
2023-04-11T12:19:41.588Z,67.08
2023-04-11T12:21:02.482Z,67.46
2023-04-11T12:21:41.420Z,68.23
2023-04-11T12:22:41.343Z,68.23
2023-04-11T12:23:41.281Z,69.66
2023-04-11T12:24:41.205Z,68.61
2023-04-11T12:25:41.113Z,66.60
2023-04-11T12:27:06.832Z,65.84
2023-04-11T12:27:40.972Z,66.22
2023-04-11T12:28:40.870Z,65.45
2023-04-11T12:29:40.795Z,65.74
2023-04-11T12:30:40.755Z,66.70
2023-04-11T12:31:40.663Z,67.18
2023-04-11T12:33:01.571Z,66.31
2023-04-11T12:33:40.484Z,66.79
2023-04-11T12:34:40.406Z,66.70
2023-04-11T12:35:40.321Z,67.75
2023-04-11T12:36:40.249Z,67.55
2023-04-11T12:37:40.177Z,67.55
2023-04-11T12:39:01.074Z,65.84
2023-04-11T12:39:40.013Z,64.22
2023-04-11T12:40:39.927Z,64.78
2023-04-11T12:41:39.854Z,66.66
2023-04-11T12:42:45.698Z,68.29
2023-04-11T12:43:39.690Z,67.91
2023-04-11T12:45:00.613Z,67.52
2023-04-11T12:45:39.534Z,68.29
2023-04-11T12:46:39.471Z,70.87
2023-04-11T12:47:39.404Z,73.22
2023-04-11T12:48:39.297Z,75.13
2023-04-11T12:49:39.216Z,76.23
2023-04-11T12:51:00.126Z,77.95
2023-04-11T12:51:39.053Z,78.72